createdAt,value
2018-08-09T00:01:45.131Z,75.24
2018-08-09T00:04:13.785Z,75.08
2018-08-09T00:06:42.136Z,74.18
2018-08-09T00:09:10.699Z,74.54
2018-08-09T00:11:39.699Z,75.42
2018-08-09T00:14:09.479Z,75.24
2018-08-09T00:16:38.065Z,75.52
2018-08-09T00:19:06.620Z,75.84
2018-08-09T00:21:35.415Z,75.28
2018-08-09T00:24:05.276Z,75.19
2018-08-09T00:26:33.629Z,74.54
2018-08-09T00:29:01.966Z,74.65
2018-08-09T00:31:30.351Z,74.60
2018-08-09T00:33:58.751Z,74.62
2018-08-09T00:36:27.107Z,75.15
2018-08-09T00:38:56.425Z,74.14
2018-08-09T00:41:24.775Z,73.92
2018-08-09T00:43:53.329Z,73.68
2018-08-09T00:46:21.959Z,74.16
2018-08-09T00:48:50.329Z,74.43
2018-08-09T00:51:18.707Z,74.33
2018-08-09T00:53:47.075Z,73.89
2018-08-09T00:56:15.452Z,73.26
2018-08-09T00:58:43.835Z,74.11
2018-08-09T01:01:12.582Z,73.65
2018-08-09T01:03:41.534Z,73.43
2018-08-09T01:06:09.858Z,73.18
2018-08-09T01:08:38.596Z,72.88
2018-08-09T01:11:07.203Z,73.14
2018-08-09T01:13:35.561Z,72.76
2018-08-09T01:16:04.424Z,72.91
2018-08-09T01:18:32.792Z,72.86
2018-08-09T01:21:01.151Z,73.05
2018-08-09T01:23:29.502Z,73.95
2018-08-09T01:25:59.376Z,74.25
2018-08-09T01:28:27.748Z,72.95
2018-08-09T01:30:56.066Z,73.75
2018-08-09T01:33:24.432Z,73.10
2018-08-09T01:35:52.963Z,72.48
2018-08-09T01:38:21.784Z,73.32
2018-08-09T01:40:51.167Z,72.78
2018-08-09T01:43:31.189Z,72.67
2018-08-09T01:46:00.121Z,71.96
2018-08-09T01:48:28.475Z,73.08
2018-08-09T01:50:57.451Z,73.29
2018-08-09T01:53:25.811Z,72.13
2018-08-09T01:55:54.146Z,73.32
2018-08-09T01:58:22.519Z,73.09
2018-08-09T02:00:50.918Z,72.83
2018-08-09T02:03:19.270Z,72.87
2018-08-09T02:05:48.383Z,72.30
2018-08-09T02:08:17.107Z,72.32
2018-08-09T02:10:45.470Z,71.50
2018-08-09T02:13:13.821Z,71.24
2018-08-09T02:15:42.471Z,71.45
2018-08-09T02:18:10.801Z,72.31
2018-08-09T02:20:39.110Z,72.70
2018-08-09T02:23:07.399Z,73.16
2018-08-09T02:25:35.999Z,73.82
2018-08-09T02:28:04.323Z,73.43
2018-08-09T02:30:32.643Z,72.48
2018-08-09T02:33:01.635Z,72.74
2018-08-09T02:35:29.956Z,73.97
2018-08-09T02:37:58.528Z,74.76
2018-08-09T02:40:28.163Z,74.66
2018-08-09T02:42:56.735Z,73.86
2018-08-09T02:45:26.143Z,74.74
2018-08-09T02:47:54.451Z,74.76
2018-08-09T02:50:22.798Z,74.94
2018-08-09T02:52:51.844Z,75.47
2018-08-09T02:55:20.193Z,75.57
2018-08-09T02:57:49.188Z,75.61
2018-08-09T03:00:17.542Z,75.28
2018-08-09T03:02:46.246Z,75.70
2018-08-09T03:05:14.604Z,76.87
2018-08-09T03:07:42.932Z,76.71
2018-08-09T03:10:11.271Z,76.51
2018-08-09T03:12:39.546Z,76.97
2018-08-09T03:15:08.241Z,76.98
2018-08-09T03:17:36.543Z,76.71
2018-08-09T03:20:04.923Z,76.16
2018-08-09T03:22:33.211Z,75.65
2018-08-09T03:25:01.691Z,74.85
2018-08-09T03:27:29.990Z,74.76
2018-08-09T03:29:58.517Z,73.94
2018-08-09T03:32:26.810Z,75.06
2018-08-09T03:34:56.043Z,75.17
2018-08-09T03:37:24.348Z,75.19
2018-08-09T03:39:52.662Z,74.68
2018-08-09T03:42:22.244Z,74.24
2018-08-09T03:44:50.567Z,74.88
2018-08-09T03:47:18.903Z,74.76
2018-08-09T03:49:48.130Z,75.22
2018-08-09T03:52:16.455Z,74.42
2018-08-09T03:54:45.239Z,74.74
2018-08-09T03:57:14.582Z,75.55
2018-08-09T03:59:42.970Z,75.00
2018-08-09T04:02:11.215Z,75.36
2018-08-09T04:04:39.551Z,75.20
2018-08-09T04:07:07.887Z,74.20
2018-08-09T04:09:36.198Z,74.24
2018-08-09T04:12:04.544Z,73.72
2018-08-09T04:14:32.842Z,73.41
2018-08-09T04:17:05.300Z,73.58
2018-08-09T04:19:33.693Z,73.96
2018-08-09T04:22:02.019Z,74.06
2018-08-09T04:24:30.348Z,75.08
2018-08-09T04:26:58.655Z,75.35
2018-08-09T04:29:26.959Z,75.15
2018-08-09T04:31:55.624Z,75.09
2018-08-09T04:34:23.972Z,74.90
2018-08-09T04:36:52.303Z,73.86
2018-08-09T04:39:21.234Z,74.39
2018-08-09T04:41:49.567Z,74.43
2018-08-09T04:44:17.882Z,73.26
2018-08-09T04:46:46.191Z,72.77
2018-08-09T04:49:14.493Z,71.80
2018-08-09T04:51:42.807Z,71.91
2018-08-09T04:54:11.099Z,71.08
2018-08-09T04:56:39.412Z,70.34
2018-08-09T04:59:07.723Z,70.92
2018-08-09T05:01:36.022Z,70.54
2018-08-09T05:04:04.316Z,69.35
2018-08-09T05:06:32.635Z,70.06
2018-08-09T05:09:01.339Z,69.75
2018-08-09T05:11:29.646Z,69.35
2018-08-09T05:13:57.964Z,70.19
2018-08-09T05:16:26.628Z,68.69
2018-08-09T05:18:54.926Z,68.80
2018-08-09T05:21:23.246Z,68.42
2018-08-09T05:23:51.546Z,68.27
2018-08-09T05:26:19.943Z,67.95
2018-08-09T05:28:48.227Z,67.93
2018-08-09T05:31:16.531Z,67.82
2018-08-09T05:33:44.940Z,67.89
2018-08-09T05:36:13.367Z,67.82
2018-08-09T05:38:41.658Z,68.09
2018-08-09T05:41:09.983Z,69.26
2018-08-09T05:43:38.717Z,69.69
2018-08-09T05:46:07.718Z,70.26
2018-08-09T05:48:36.012Z,71.53
2018-08-09T05:51:04.774Z,71.40
2018-08-09T05:53:33.110Z,71.79
2018-08-09T05:56:01.423Z,71.97
2018-08-09T05:58:29.727Z,75.01
2018-08-09T06:00:58.069Z,74.36
2018-08-09T06:03:26.380Z,75.23
2018-08-09T06:05:55.180Z,74.28
2018-08-09T06:08:23.495Z,75.37
2018-08-09T06:10:51.819Z,78.25
2018-08-09T06:13:20.170Z,77.82
2018-08-09T06:15:49.503Z,76.28
2018-08-09T06:18:18.026Z,77.76
2018-08-09T06:20:46.351Z,77.23
2018-08-09T06:23:14.688Z,75.12
2018-08-09T06:25:43.035Z,73.42
2018-08-09T06:28:11.336Z,73.52
2018-08-09T06:30:40.072Z,74.46
2018-08-09T06:33:08.634Z,73.17
2018-08-09T06:35:36.979Z,72.35
2018-08-09T06:38:05.347Z,73.64
2018-08-09T06:40:33.992Z,72.74
2018-08-09T06:43:02.313Z,73.86
2018-08-09T06:45:30.643Z,71.39
2018-08-09T06:47:58.978Z,72.74
2018-08-09T06:50:27.311Z,70.49
2018-08-09T06:52:55.631Z,69.60
2018-08-09T06:55:24.403Z,69.05
2018-08-09T06:57:52.727Z,68.72
2018-08-09T07:00:21.424Z,68.48
2018-08-09T07:02:50.127Z,65.81
2018-08-09T07:05:18.447Z,64.55
2018-08-09T07:07:46.834Z,64.96
2018-08-09T07:10:15.142Z,66.73
2018-08-09T07:12:43.516Z,67.67
2018-08-09T07:15:13.011Z,67.40
2018-08-09T07:17:41.926Z,67.20
2018-08-09T07:20:10.767Z,68.70
2018-08-09T07:22:40.431Z,67.80
2018-08-09T07:25:09.123Z,66.79
2018-08-09T07:27:37.618Z,65.59
2018-08-09T07:30:07.804Z,64.00
2018-08-09T07:32:36.159Z,64.26
2018-08-09T07:35:04.633Z,61.63
2018-08-09T07:37:32.937Z,58.45
2018-08-09T07:40:01.286Z,57.25
2018-08-09T07:42:29.607Z,53.45
2018-08-09T07:44:57.947Z,51.73
2018-08-09T07:47:26.882Z,53.02
2018-08-09T07:49:55.499Z,51.37
2018-08-09T07:52:23.829Z,48.27
2018-08-09T07:54:52.523Z,46.34
2018-08-09T07:57:20.860Z,42.93
2018-08-09T07:59:49.182Z,39.25
2018-08-09T08:02:17.489Z,36.38
2018-08-09T08:04:45.782Z,35.35
2018-08-09T08:07:14.117Z,34.79
2018-08-09T08:09:42.412Z,35.61
2018-08-09T08:12:10.718Z,35.65
2018-08-09T08:14:39.003Z,36.36
2018-08-09T08:17:07.335Z,37.03
2018-08-09T08:19:35.836Z,34.90
2018-08-09T08:22:04.407Z,33.14
2018-08-09T08:24:32.693Z,30.87
2018-08-09T08:27:01.380Z,30.62
2018-08-09T08:29:30.370Z,29.04
2018-08-09T08:31:59.087Z,33.70
2018-08-09T08:34:27.459Z,31.16
2018-08-09T08:36:56.095Z,33.57
2018-08-09T08:39:24.391Z,30.07
2018-08-09T08:41:52.745Z,30.34
2018-08-09T08:44:21.042Z,29.21
2018-08-09T08:46:49.379Z,27.54
2018-08-09T08:49:18.067Z,26.73
2018-08-09T08:51:46.379Z,25.57
2018-08-09T08:54:14.871Z,24.61
2018-08-09T08:56:43.207Z,26.95
2018-08-09T08:59:11.519Z,25.01
2018-08-09T09:01:39.826Z,23.83
2018-08-09T09:04:08.557Z,25.54
2018-08-09T09:06:36.843Z,24.30
2018-08-09T09:09:09.612Z,24.58
2018-08-09T09:11:37.939Z,22.96
2018-08-09T09:14:06.287Z,22.48
2018-08-09T09:16:36.012Z,24.06
2018-08-09T09:19:04.422Z,22.97
2018-08-09T09:21:32.710Z,22.81
2018-08-09T09:24:01.035Z,21.74
2018-08-09T09:26:29.350Z,22.16
2018-08-09T09:28:57.650Z,22.85
2018-08-09T09:31:26.631Z,21.44
2018-08-09T09:33:54.963Z,22.12
2018-08-09T09:36:23.703Z,23.68
2018-08-09T09:38:52.023Z,22.92
2018-08-09T09:41:20.365Z,25.63
2018-08-09T09:43:48.658Z,24.40
2018-08-09T09:46:17.004Z,23.91
2018-08-09T09:48:45.314Z,24.70
2018-08-09T09:51:13.631Z,23.34
2018-08-09T09:53:41.979Z,22.31
2018-08-09T09:56:10.324Z,23.07
2018-08-09T09:58:39.082Z,24.36
2018-08-09T10:01:12.735Z,26.46
2018-08-09T10:03:41.080Z,23.05
2018-08-09T10:06:09.392Z,25.59
2018-08-09T10:08:37.707Z,26.30
2018-08-09T10:11:05.985Z,27.35
2018-08-09T10:13:34.287Z,25.27
2018-08-09T10:16:02.579Z,24.62
2018-08-09T10:18:30.918Z,24.68
2018-08-09T10:20:59.211Z,25.49
2018-08-09T10:23:27.943Z,25.33
2018-08-09T10:25:56.246Z,25.05
2018-08-09T10:28:24.927Z,24.86
2018-08-09T10:30:53.223Z,26.52
2018-08-09T10:33:21.532Z,25.16
2018-08-09T10:35:50.116Z,29.42
2018-08-09T10:38:18.442Z,26.38
2018-08-09T10:40:46.773Z,23.59
2018-08-09T10:43:15.098Z,26.84
2018-08-09T10:45:43.904Z,27.12
2018-08-09T10:48:12.263Z,25.65
2018-08-09T10:50:40.828Z,26.38
2018-08-09T10:53:09.167Z,28.42
2018-08-09T10:55:37.472Z,26.86
2018-08-09T10:58:05.895Z,29.12
2018-08-09T11:00:34.252Z,30.84
2018-08-09T11:03:02.574Z,34.07
2018-08-09T11:05:31.385Z,35.65
2018-08-09T11:07:59.702Z,32.81
2018-08-09T11:10:28.023Z,29.45
2018-08-09T11:12:56.348Z,28.80
2018-08-09T11:15:24.654Z,28.13
2018-08-09T11:17:52.967Z,28.02
2018-08-09T11:20:21.298Z,30.33
2018-08-09T11:22:49.623Z,35.95
2018-08-09T11:25:17.936Z,37.72
2018-08-09T11:27:46.727Z,35.88
2018-08-09T11:30:15.103Z,31.17
2018-08-09T11:32:44.487Z,28.73
2018-08-09T11:35:13.103Z,29.35
2018-08-09T11:37:41.779Z,31.55
2018-08-09T11:40:10.135Z,34.27
2018-08-09T11:42:38.496Z,37.95
2018-08-09T11:45:07.387Z,37.38
2018-08-09T11:47:35.945Z,37.13
2018-08-09T11:50:04.710Z,37.56
2018-08-09T11:52:33.048Z,39.02
2018-08-09T11:55:01.500Z,40.47
2018-08-09T11:57:30.220Z,40.87
2018-08-09T11:59:58.627Z,40.36
2018-08-09T12:02:27.003Z,41.58
2018-08-09T12:04:55.334Z,42.60
2018-08-09T12:07:24.968Z,42.12
2018-08-09T12:09:53.340Z,43.14
2018-08-09T12:12:21.698Z,43.62
2018-08-09T12:14:50.073Z,43.08
2018-08-09T12:17:18.411Z,43.77
2018-08-09T12:19:46.789Z,42.80
2018-08-09T12:22:15.394Z,43.33
2018-08-09T12:24:43.778Z,44.05
2018-08-09T12:27:12.174Z,43.56
2018-08-09T12:29:40.569Z,44.38
2018-08-09T12:32:08.947Z,44.34
2018-08-09T12:34:37.356Z,45.48
2018-08-09T12:37:05.851Z,57.92
2018-08-09T12:39:34.286Z,71.04
2018-08-09T12:42:02.643Z,75.27
2018-08-09T12:44:31.075Z,77.60
2018-08-09T12:46:59.611Z,80.80
2018-08-09T12:49:28.508Z,81.78
2018-08-09T12:51:56.893Z,81.74
2018-08-09T12:54:25.300Z,80.55
2018-08-09T12:56:53.716Z,80.82
2018-08-09T12:59:22.138Z,83.49
2018-08-09T13:01:50.975Z,85.10
2018-08-09T13:04:19.342Z,84.11
2018-08-09T13:06:48.633Z,84.34
2018-08-09T13:09:17.383Z,83.06
2018-08-09T13:11:46.003Z,83.06
2018-08-09T13:14:14.419Z,82.74
2018-08-09T13:16:42.772Z,83.79
2018-08-09T13:19:11.200Z,83.84
2018-08-09T13:21:39.564Z,84.21
2018-08-09T13:24:08.003Z,81.84
2018-08-09T13:26:37.028Z,81.23
2018-08-09T13:29:05.683Z,81.42
2018-08-09T13:31:34.385Z,81.36
2018-08-09T13:34:02.807Z,81.24
2018-08-09T13:36:31.527Z,80.31
2018-08-09T13:38:59.938Z,78.98
2018-08-09T13:41:28.313Z,78.26
2018-08-09T13:43:56.694Z,75.75
2018-08-09T13:46:25.423Z,75.66
2018-08-09T13:48:53.819Z,74.05
2018-08-09T13:51:22.263Z,71.96
2018-08-09T13:53:50.971Z,71.69
2018-08-09T13:56:19.328Z,70.00
2018-08-09T13:58:47.993Z,69.93
2018-08-09T14:01:16.375Z,66.38
2018-08-09T14:03:45.047Z,65.28
2018-08-09T14:06:13.401Z,65.02
2018-08-09T14:08:41.783Z,64.12
2018-08-09T14:11:10.196Z,63.98
2018-08-09T14:13:38.577Z,60.32
2018-08-09T14:16:07.438Z,64.72
2018-08-09T14:18:35.792Z,65.96
2018-08-09T14:21:04.190Z,67.79
2018-08-09T14:23:32.527Z,68.80
2018-08-09T14:26:00.929Z,66.53
2018-08-09T14:28:29.287Z,64.92
2018-08-09T14:30:58.139Z,66.43
2018-08-09T14:33:26.900Z,66.02
2018-08-09T14:35:55.718Z,67.31
2018-08-09T14:38:24.067Z,65.26
2018-08-09T14:40:52.567Z,66.84
2018-08-09T14:43:20.966Z,68.50
2018-08-09T14:45:49.353Z,69.89
2018-08-09T14:48:17.745Z,70.70
2018-08-09T14:50:46.107Z,69.79
2018-08-09T14:53:14.835Z,70.70
2018-08-09T14:55:43.647Z,71.51
2018-08-09T14:58:12.080Z,71.11
2018-08-09T15:00:40.690Z,70.71
2018-08-09T15:03:09.064Z,71.33
2018-08-09T15:05:37.566Z,70.69
2018-08-09T15:08:06.307Z,70.05
2018-08-09T15:10:34.667Z,68.26
2018-08-09T15:13:03.057Z,68.69
2018-08-09T15:15:31.499Z,68.20
2018-08-09T15:17:59.948Z,69.45
2018-08-09T15:20:28.367Z,67.76
2018-08-09T15:22:57.595Z,67.81
2018-08-09T15:25:25.942Z,65.97
2018-08-09T15:27:54.295Z,63.23
2018-08-09T15:30:22.652Z,63.75
2018-08-09T15:32:50.974Z,62.98
2018-08-09T15:35:19.371Z,63.01
2018-08-09T15:37:47.691Z,63.04
2018-08-09T15:40:16.311Z,61.78
2018-08-09T15:42:44.747Z,60.72
2018-08-09T15:45:14.534Z,61.21
2018-08-09T15:47:43.179Z,61.55
2018-08-09T15:50:16.218Z,61.50
2018-08-09T15:52:44.538Z,62.32
2018-08-09T15:55:13.782Z,60.57
2018-08-09T15:57:42.145Z,60.77
2018-08-09T16:00:17.617Z,59.83
2018-08-09T16:02:46.179Z,60.16
2018-08-09T16:05:14.549Z,60.41
2018-08-09T16:07:44.319Z,60.48
2018-08-09T16:10:14.141Z,59.94
2018-08-09T16:12:42.486Z,59.97
2018-08-09T16:15:13.812Z,58.30
2018-08-09T16:17:42.375Z,55.99
2018-08-09T16:20:11.574Z,55.42
2018-08-09T16:22:39.951Z,56.26
2018-08-09T16:25:15.711Z,55.79
2018-08-09T16:27:45.132Z,56.23
2018-08-09T16:30:15.690Z,57.19
2018-08-09T16:32:44.175Z,55.96
2018-08-09T16:35:13.047Z,55.80
2018-08-09T16:37:41.959Z,56.38
2018-08-09T16:40:13.076Z,56.84
2018-08-09T16:42:42.234Z,57.13
2018-08-09T16:45:11.384Z,56.43
2018-08-09T16:47:40.054Z,56.88
2018-08-09T16:50:09.799Z,57.01
2018-08-09T16:52:38.135Z,56.48
2018-08-09T16:55:08.474Z,55.74
2018-08-09T16:57:37.203Z,55.06
2018-08-09T17:00:08.018Z,56.87
2018-08-09T17:02:36.802Z,56.84
2018-08-09T17:05:06.514Z,56.36
2018-08-09T17:07:34.870Z,55.81
2018-08-09T17:10:03.231Z,55.37
2018-08-09T17:12:31.579Z,56.50
2018-08-09T17:14:59.919Z,56.03
2018-08-09T17:17:28.671Z,55.58
2018-08-09T17:19:57.890Z,56.16
2018-08-09T17:22:26.237Z,56.08
2018-08-09T17:24:54.591Z,56.86
2018-08-09T17:27:22.963Z,57.11
2018-08-09T17:29:51.307Z,57.90
2018-08-09T17:32:19.691Z,57.07
2018-08-09T17:34:48.262Z,57.19
2018-08-09T17:37:16.672Z,57.32
2018-08-09T17:39:44.988Z,57.83
2018-08-09T17:42:13.327Z,57.62
2018-08-09T17:44:41.674Z,58.16
2018-08-09T17:47:10.048Z,57.81
2018-08-09T17:49:38.582Z,59.01
2018-08-09T17:52:06.915Z,58.42
2018-08-09T17:54:35.238Z,59.15
2018-08-09T17:57:03.600Z,59.77
2018-08-09T17:59:32.100Z,59.56
2018-08-09T18:02:00.423Z,60.15
2018-08-09T18:04:29.412Z,59.88
2018-08-09T18:06:57.790Z,60.88
2018-08-09T18:09:26.139Z,59.88
2018-08-09T18:11:54.872Z,60.70
2018-08-09T18:14:23.960Z,61.40
2018-08-09T18:16:53.023Z,61.56
2018-08-09T18:19:21.347Z,61.58
2018-08-09T18:21:49.682Z,61.49
2018-08-09T18:24:18.003Z,62.87
2018-08-09T18:26:46.379Z,63.08
2018-08-09T18:29:17.243Z,62.86
2018-08-09T18:31:46.620Z,62.72
2018-08-09T18:34:15.306Z,63.08
2018-08-09T18:36:44.554Z,62.83
2018-08-09T18:39:13.652Z,63.13
2018-08-09T18:41:42.040Z,64.13
2018-08-09T18:44:10.399Z,63.15
2018-08-09T18:46:38.731Z,63.68
2018-08-09T18:49:07.556Z,64.39
2018-08-09T18:51:37.665Z,65.07
2018-08-09T18:54:08.095Z,65.14
2018-08-09T18:56:36.427Z,65.35
2018-08-09T18:59:04.771Z,63.87
2018-08-09T19:01:33.152Z,64.63
2018-08-09T19:04:01.504Z,64.76
2018-08-09T19:06:29.831Z,65.02
2018-08-09T19:08:58.368Z,65.59
2018-08-09T19:11:26.871Z,65.84
2018-08-09T19:13:55.213Z,66.19
2018-08-09T19:16:23.522Z,65.97
2018-08-09T19:18:51.915Z,67.33
2018-08-09T19:21:20.267Z,66.67
2018-08-09T19:23:48.618Z,67.73
2018-08-09T19:26:17.404Z,67.12
2018-08-09T19:28:45.746Z,67.57
2018-08-09T19:31:14.116Z,68.55
2018-08-09T19:33:42.470Z,68.83
2018-08-09T19:36:10.852Z,69.57
2018-08-09T19:38:39.240Z,69.91
2018-08-09T19:41:07.650Z,70.16
2018-08-09T19:43:35.994Z,69.76
2018-08-09T19:46:04.347Z,69.94
2018-08-09T19:48:32.987Z,70.07
2018-08-09T19:51:01.376Z,70.09
2018-08-09T19:53:29.722Z,70.54
2018-08-09T19:55:58.052Z,70.81
2018-08-09T19:58:26.378Z,71.10
2018-08-09T20:00:54.722Z,70.79
2018-08-09T20:03:23.318Z,70.90
2018-08-09T20:05:51.657Z,70.02
2018-08-09T20:08:20.034Z,70.28
2018-08-09T20:10:48.767Z,71.07
2018-08-09T20:13:17.076Z,71.21
2018-08-09T20:15:45.430Z,71.56
2018-08-09T20:18:13.762Z,71.36
2018-08-09T20:20:42.207Z,70.27
2018-08-09T20:23:10.587Z,71.15
2018-08-09T20:25:38.901Z,70.72
2018-08-09T20:28:07.261Z,68.51
2018-08-09T20:30:35.627Z,68.21
2018-08-09T20:33:03.971Z,67.75
2018-08-09T20:35:32.308Z,67.12
2018-08-09T20:38:00.622Z,68.05
2018-08-09T20:40:28.951Z,68.60
2018-08-09T20:42:57.311Z,68.84
2018-08-09T20:45:25.995Z,67.85
2018-08-09T20:47:54.335Z,66.47
2018-08-09T20:50:24.394Z,66.70
2018-08-09T20:52:52.751Z,65.67
2018-08-09T20:55:21.070Z,65.78
2018-08-09T20:57:50.170Z,66.40
2018-08-09T21:00:22.616Z,67.05
2018-08-09T21:02:52.767Z,67.37
2018-08-09T21:05:23.647Z,67.89
2018-08-09T21:07:53.042Z,68.45
2018-08-09T21:10:21.466Z,69.81
2018-08-09T21:12:49.809Z,70.22
2018-08-09T21:15:19.018Z,70.68
2018-08-09T21:17:47.359Z,70.63
2018-08-09T21:20:15.910Z,70.14
2018-08-09T21:22:45.630Z,69.87
2018-08-09T21:25:14.245Z,70.11
2018-08-09T21:27:42.826Z,69.71
2018-08-09T21:30:13.420Z,70.25
2018-08-09T21:32:41.758Z,70.11
2018-08-09T21:35:10.662Z,69.65
2018-08-09T21:37:39.623Z,69.66
2018-08-09T21:40:09.107Z,69.69
2018-08-09T21:42:37.439Z,69.63
2018-08-09T21:45:14.591Z,70.42
2018-08-09T21:47:43.235Z,70.05
2018-08-09T21:50:14.869Z,71.41
2018-08-09T21:52:43.282Z,72.47
2018-08-09T21:55:12.987Z,72.53
2018-08-09T21:57:41.885Z,73.19
2018-08-09T22:00:21.058Z,74.38
2018-08-09T22:02:49.374Z,74.29
2018-08-09T22:05:22.974Z,74.62
2018-08-09T22:07:56.859Z,75.32
2018-08-09T22:10:30.491Z,75.03
2018-08-09T22:13:04.160Z,75.06
2018-08-09T22:15:37.766Z,75.09
2018-08-09T22:18:11.903Z,75.09
2018-08-09T22:22:50.579Z,75.57
2018-08-09T22:25:18.899Z,76.48
2018-08-09T22:27:47.226Z,76.76
2018-08-09T22:30:16.735Z,75.48
2018-08-09T22:32:45.047Z,75.21
2018-08-09T22:35:13.391Z,74.72
2018-08-09T22:37:41.706Z,73.95
2018-08-09T22:40:10.043Z,73.26
2018-08-09T22:42:38.355Z,72.34
2018-08-09T22:45:06.690Z,71.98
2018-08-09T22:47:35.319Z,71.13
2018-08-09T22:50:04.970Z,71.01
2018-08-09T22:52:33.282Z,71.10
2018-08-09T22:55:01.588Z,71.43
2018-08-09T22:57:30.254Z,71.37
2018-08-09T22:59:58.595Z,71.43
2018-08-09T23:02:26.934Z,71.77
2018-08-09T23:04:55.255Z,71.78
2018-08-09T23:07:23.566Z,71.57
2018-08-09T23:09:51.939Z,71.71
2018-08-09T23:12:20.246Z,71.78
2018-08-09T23:14:48.598Z,71.68
2018-08-09T23:17:16.911Z,72.54
2018-08-09T23:19:45.260Z,72.44
2018-08-09T23:22:17.636Z,73.16
2018-08-09T23:24:45.955Z,73.27
2018-08-09T23:27:14.259Z,72.96
2018-08-09T23:29:42.572Z,72.56
2018-08-09T23:32:11.223Z,72.31
2018-08-09T23:34:39.571Z,72.03
2018-08-09T23:37:07.896Z,72.19
2018-08-09T23:39:36.312Z,72.41
2018-08-09T23:42:04.599Z,71.81
2018-08-09T23:44:32.902Z,72.61
2018-08-09T23:47:01.215Z,72.87
2018-08-09T23:49:29.531Z,73.13
2018-08-09T23:51:57.838Z,73.24
2018-08-09T23:54:26.190Z,73.70
2018-08-09T23:56:54.515Z,74.05
2018-08-09T23:59:22.862Z,73.81
